createdAt,value
2023-08-18T00:01:35.820Z,0.00
2023-08-18T00:02:06.488Z,0.00
2023-08-18T00:02:37.204Z,0.00
2023-08-18T00:03:07.874Z,0.00
2023-08-18T00:03:38.560Z,0.00
2023-08-18T00:04:09.071Z,0.00
2023-08-18T00:04:39.709Z,0.00
2023-08-18T00:05:10.383Z,0.00
2023-08-18T00:05:40.997Z,0.00
2023-08-18T00:06:11.657Z,0.00
2023-08-18T00:06:42.362Z,0.00
2023-08-18T00:07:12.963Z,0.00
2023-08-18T00:07:43.739Z,0.00
2023-08-18T00:08:14.461Z,0.00
2023-08-18T00:08:45.084Z,0.00
2023-08-18T00:09:15.745Z,0.00
2023-08-18T00:09:46.396Z,0.00
2023-08-18T00:10:17.089Z,0.00
2023-08-18T00:10:47.688Z,0.00
2023-08-18T00:11:18.334Z,0.00
2023-08-18T00:11:49.032Z,0.00
2023-08-18T00:12:19.684Z,0.00
2023-08-18T00:12:50.326Z,0.00
2023-08-18T00:13:20.937Z,0.00
2023-08-18T00:13:51.592Z,0.00
2023-08-18T00:14:22.213Z,0.00
2023-08-18T00:14:52.840Z,0.00
2023-08-18T00:15:23.476Z,0.00
2023-08-18T00:15:54.191Z,0.00
2023-08-18T00:16:24.888Z,0.00
2023-08-18T00:16:55.546Z,0.00
2023-08-18T00:17:26.286Z,0.00
2023-08-18T00:17:57.002Z,0.00
2023-08-18T00:18:27.665Z,0.00
2023-08-18T00:18:58.365Z,0.00
2023-08-18T00:19:29.112Z,0.00
2023-08-18T00:19:59.738Z,0.00
2023-08-18T00:20:30.465Z,0.00
2023-08-18T00:21:01.103Z,0.00
2023-08-18T00:21:31.800Z,0.00
2023-08-18T00:22:02.444Z,0.00
2023-08-18T00:22:33.099Z,0.00
2023-08-18T00:23:03.740Z,0.00
2023-08-18T00:23:34.435Z,0.00
2023-08-18T00:24:05.103Z,0.00
2023-08-18T00:24:35.818Z,0.00
2023-08-18T00:25:06.538Z,0.00
2023-08-18T00:25:37.212Z,0.00
2023-08-18T00:26:07.920Z,0.00
2023-08-18T00:26:38.749Z,0.00
2023-08-18T00:27:09.497Z,0.00
2023-08-18T00:27:40.162Z,0.00
2023-08-18T00:28:10.751Z,0.00
2023-08-18T00:28:41.450Z,0.00
2023-08-18T00:29:12.108Z,0.00
2023-08-18T00:29:42.811Z,0.00
2023-08-18T00:30:13.527Z,0.00
2023-08-18T00:30:44.206Z,0.00
2023-08-18T00:31:14.899Z,0.00
2023-08-18T00:31:45.609Z,0.00
2023-08-18T00:32:16.219Z,0.00
2023-08-18T00:32:46.907Z,0.00
2023-08-18T00:33:17.665Z,0.00
2023-08-18T00:33:48.304Z,0.00
2023-08-18T00:34:18.913Z,0.00
2023-08-18T00:34:49.604Z,0.00
2023-08-18T00:35:20.306Z,0.00
2023-08-18T00:35:50.972Z,0.00
2023-08-18T00:36:21.621Z,0.00
2023-08-18T00:36:52.252Z,0.00
2023-08-18T00:37:22.902Z,0.00
2023-08-18T00:37:53.574Z,0.00
2023-08-18T00:38:24.196Z,0.00
2023-08-18T00:38:54.899Z,0.00
2023-08-18T00:39:25.570Z,0.00
2023-08-18T00:39:56.216Z,0.00
2023-08-18T00:40:26.955Z,0.00
2023-08-18T00:40:57.666Z,0.00
2023-08-18T00:41:28.333Z,0.00
2023-08-18T00:41:58.972Z,0.00
2023-08-18T00:42:29.634Z,0.00
2023-08-18T00:43:00.305Z,0.00
2023-08-18T00:43:30.984Z,0.00
2023-08-18T00:44:01.608Z,0.00
2023-08-18T00:44:32.278Z,0.00
2023-08-18T00:45:02.946Z,0.00
2023-08-18T00:45:33.671Z,0.00
2023-08-18T00:46:04.367Z,0.00
2023-08-18T00:46:35.007Z,0.00
2023-08-18T00:47:05.671Z,0.00
2023-08-18T00:47:36.383Z,0.00
2023-08-18T00:48:07.055Z,0.00
2023-08-18T00:48:37.708Z,0.00
2023-08-18T00:49:08.332Z,0.00
2023-08-18T00:49:38.963Z,0.00
2023-08-18T00:50:09.614Z,0.00
2023-08-18T00:50:40.262Z,0.00
2023-08-18T00:51:10.916Z,0.00
2023-08-18T00:51:41.592Z,0.00
2023-08-18T00:52:12.314Z,0.00
2023-08-18T00:52:42.957Z,0.00
2023-08-18T00:53:13.647Z,0.00
2023-08-18T00:53:44.326Z,0.00
2023-08-18T00:54:15.020Z,0.00
2023-08-18T00:54:46.330Z,0.00
2023-08-18T00:55:16.197Z,0.00
2023-08-18T00:55:46.940Z,0.00
2023-08-18T00:56:17.636Z,0.00
2023-08-18T00:56:48.300Z,0.00
2023-08-18T00:57:18.955Z,0.00
2023-08-18T00:57:49.634Z,0.00
2023-08-18T00:58:20.287Z,0.00
2023-08-18T00:58:51.061Z,0.00
2023-08-18T00:59:21.681Z,0.00
2023-08-18T00:59:52.379Z,0.00
2023-08-18T01:00:23.034Z,0.00
2023-08-18T01:00:53.833Z,0.00
2023-08-18T01:01:24.472Z,0.00
2023-08-18T01:01:55.145Z,0.00
2023-08-18T01:02:25.864Z,0.00
2023-08-18T01:02:56.526Z,0.00
2023-08-18T01:03:27.286Z,0.00
2023-08-18T01:03:57.921Z,0.00
2023-08-18T01:04:28.589Z,0.00
2023-08-18T01:04:59.248Z,0.00
2023-08-18T01:05:29.882Z,0.00
2023-08-18T01:06:00.542Z,0.00
2023-08-18T01:06:31.177Z,0.00
2023-08-18T01:07:01.911Z,0.00
2023-08-18T01:07:32.583Z,0.00
2023-08-18T01:08:03.268Z,0.00
2023-08-18T01:08:33.963Z,0.00
2023-08-18T01:09:04.613Z,0.00
2023-08-18T01:09:35.300Z,0.00
2023-08-18T01:10:05.965Z,0.00
2023-08-18T01:10:36.616Z,0.00
2023-08-18T01:11:07.230Z,0.00
2023-08-18T01:11:37.903Z,0.00
2023-08-18T01:12:08.644Z,0.00
2023-08-18T01:12:39.297Z,0.00
2023-08-18T01:13:09.979Z,0.00
2023-08-18T01:13:40.682Z,0.00
2023-08-18T01:14:11.311Z,0.00
2023-08-18T01:14:41.984Z,0.00
2023-08-18T01:15:12.756Z,0.00
2023-08-18T01:15:43.398Z,0.00
2023-08-18T01:16:14.064Z,0.00
2023-08-18T01:16:44.737Z,0.00
2023-08-18T01:17:15.419Z,0.00
2023-08-18T01:17:46.119Z,0.00
2023-08-18T01:18:16.910Z,0.00
2023-08-18T01:18:47.525Z,0.00
2023-08-18T01:19:18.212Z,0.00
2023-08-18T01:19:48.933Z,0.00
2023-08-18T01:20:19.628Z,0.00
2023-08-18T01:20:50.338Z,0.00
2023-08-18T01:21:21.084Z,0.00
2023-08-18T01:21:51.759Z,0.00
2023-08-18T01:22:22.417Z,0.00
2023-08-18T01:22:53.095Z,0.00
2023-08-18T01:23:23.764Z,0.00
2023-08-18T01:23:54.438Z,0.00
2023-08-18T01:24:37.732Z,0.00
2023-08-18T01:24:56.040Z,0.00
2023-08-18T01:25:26.885Z,0.00
2023-08-18T01:25:58.246Z,0.00
2023-08-18T01:26:28.119Z,0.00
2023-08-18T01:26:59.705Z,0.00
2023-08-18T01:27:41.846Z,0.00
2023-08-18T01:28:00.201Z,0.00
2023-08-18T01:28:30.981Z,0.00
2023-08-18T01:29:01.749Z,0.00
2023-08-18T01:29:32.444Z,0.00
2023-08-18T01:30:03.135Z,0.00
2023-08-18T01:30:34.143Z,0.00
2023-08-18T01:31:04.339Z,0.00
2023-08-18T01:31:35.077Z,0.00
2023-08-18T01:32:05.748Z,0.00
2023-08-18T01:32:36.413Z,0.00
2023-08-18T01:33:07.204Z,0.00
2023-08-18T01:33:37.909Z,0.00
2023-08-18T01:34:08.595Z,0.00
2023-08-18T01:34:39.271Z,0.00
2023-08-18T01:35:09.928Z,0.00
2023-08-18T01:35:40.688Z,0.00
2023-08-18T01:36:11.347Z,0.00
2023-08-18T01:36:42.023Z,0.00
2023-08-18T01:37:12.695Z,0.00
2023-08-18T01:37:43.364Z,0.00
2023-08-18T01:38:14.051Z,0.00
2023-08-18T01:38:44.744Z,0.00
2023-08-18T01:39:15.379Z,0.00
2023-08-18T01:39:46.062Z,0.00
2023-08-18T01:40:16.685Z,0.00
2023-08-18T01:40:47.392Z,0.00
2023-08-18T01:41:18.057Z,0.00
2023-08-18T01:41:48.761Z,0.00
2023-08-18T01:42:19.454Z,0.00
2023-08-18T01:42:50.105Z,0.00
2023-08-18T01:43:20.740Z,0.00
2023-08-18T01:43:51.444Z,0.00
2023-08-18T01:44:22.131Z,0.00
2023-08-18T01:44:52.792Z,0.00
2023-08-18T01:45:23.445Z,0.00
2023-08-18T01:45:54.077Z,0.00
2023-08-18T01:46:24.880Z,0.00
2023-08-18T01:46:55.536Z,0.00
2023-08-18T01:47:26.349Z,0.00
2023-08-18T01:47:57.117Z,0.00
2023-08-18T01:48:27.757Z,0.00
2023-08-18T01:48:58.419Z,0.00
2023-08-18T01:49:29.165Z,0.00
2023-08-18T01:49:59.862Z,0.00
2023-08-18T01:50:30.526Z,0.00
2023-08-18T01:51:01.243Z,0.00
2023-08-18T01:51:31.899Z,0.00
2023-08-18T01:52:02.568Z,0.00
2023-08-18T01:52:33.473Z,0.00
2023-08-18T01:53:04.185Z,0.00
2023-08-18T01:53:34.856Z,0.00
2023-08-18T01:54:05.538Z,0.00
2023-08-18T01:54:36.248Z,0.00
2023-08-18T01:55:07.035Z,0.00
2023-08-18T01:55:37.804Z,0.00
2023-08-18T01:56:08.483Z,0.00
2023-08-18T01:56:39.147Z,0.00
2023-08-18T01:57:09.851Z,0.00
2023-08-18T01:57:40.583Z,0.00
2023-08-18T01:58:11.313Z,0.00
2023-08-18T01:58:42.046Z,0.00
2023-08-18T01:59:12.832Z,0.00
2023-08-18T01:59:43.484Z,0.00
2023-08-18T02:00:20.243Z,0.00
2023-08-18T02:02:04.554Z,0.00
2023-08-18T02:02:35.492Z,0.00
2023-08-18T02:03:06.422Z,0.00
2023-08-18T02:03:37.619Z,0.00
2023-08-18T02:04:07.574Z,0.00
2023-08-18T02:04:38.239Z,0.00
2023-08-18T02:05:08.916Z,0.00
2023-08-18T02:05:39.597Z,0.00
2023-08-18T02:06:10.318Z,0.00
2023-08-18T02:09:30.055Z,0.00
2023-08-18T02:09:58.670Z,0.00
2023-08-18T02:10:29.362Z,0.00
2023-08-18T02:11:00.008Z,0.00
2023-08-18T02:11:30.757Z,0.00
2023-08-18T02:12:01.425Z,0.00
2023-08-18T02:12:32.061Z,0.00
2023-08-18T02:13:02.734Z,0.00
2023-08-18T02:13:33.453Z,0.00
2023-08-18T02:14:04.140Z,0.00
2023-08-18T02:14:34.812Z,0.00
2023-08-18T02:15:05.552Z,0.00
2023-08-18T02:15:36.199Z,0.00
2023-08-18T02:16:06.895Z,0.00
2023-08-18T02:16:37.615Z,0.00
2023-08-18T02:17:08.285Z,0.00
2023-08-18T02:17:38.999Z,0.00
2023-08-18T02:18:09.752Z,0.00
2023-08-18T02:18:40.384Z,0.00
2023-08-18T02:19:11.066Z,0.00
2023-08-18T02:19:41.758Z,0.00
2023-08-18T02:20:12.466Z,0.00
2023-08-18T02:20:43.155Z,0.00
2023-08-18T02:21:13.868Z,0.00
2023-08-18T02:21:44.518Z,0.00
2023-08-18T02:22:15.187Z,0.00
2023-08-18T02:22:45.835Z,0.00
2023-08-18T02:23:16.525Z,0.00
2023-08-18T02:23:47.233Z,0.00
2023-08-18T02:24:17.897Z,0.00
2023-08-18T02:24:48.604Z,0.00
2023-08-18T02:25:19.244Z,0.00
2023-08-18T02:25:49.932Z,0.00
2023-08-18T02:26:20.572Z,0.00
2023-08-18T02:26:51.270Z,0.00
2023-08-18T02:27:21.982Z,0.00
2023-08-18T02:27:52.650Z,0.00
2023-08-18T02:28:23.350Z,0.00
2023-08-18T02:28:54.000Z,0.00
2023-08-18T02:29:24.697Z,0.00
2023-08-18T02:29:55.375Z,0.00
2023-08-18T02:30:26.111Z,0.00
2023-08-18T02:30:56.756Z,0.00
2023-08-18T02:31:27.476Z,0.00
2023-08-18T02:31:58.162Z,0.00
2023-08-18T02:32:28.799Z,0.00
2023-08-18T02:32:59.590Z,0.00
2023-08-18T02:33:30.291Z,0.00
2023-08-18T02:34:00.924Z,0.00
2023-08-18T02:34:31.586Z,0.00
2023-08-18T02:35:02.235Z,0.00
2023-08-18T02:35:32.945Z,0.00
2023-08-18T02:36:03.635Z,0.00
2023-08-18T02:36:34.243Z,0.00
2023-08-18T02:37:04.940Z,0.00
2023-08-18T02:37:35.614Z,0.00
2023-08-18T02:38:06.307Z,0.00
2023-08-18T02:38:36.973Z,0.00
2023-08-18T02:39:07.692Z,0.00
2023-08-18T02:39:38.352Z,0.00
2023-08-18T02:40:09.002Z,0.00
2023-08-18T02:40:39.720Z,0.00
2023-08-18T02:41:10.353Z,0.00
2023-08-18T02:41:40.998Z,0.00
2023-08-18T02:42:11.736Z,0.00
2023-08-18T02:42:42.347Z,0.00
2023-08-18T02:43:12.992Z,0.00
2023-08-18T02:43:43.663Z,0.00
2023-08-18T02:44:14.314Z,0.00
2023-08-18T02:44:44.994Z,0.00
2023-08-18T02:45:15.600Z,0.00
2023-08-18T02:45:46.263Z,0.00
2023-08-18T02:46:16.932Z,0.00
2023-08-18T02:46:47.604Z,0.00
2023-08-18T02:47:18.240Z,0.00
2023-08-18T02:47:48.995Z,0.00
2023-08-18T02:48:19.629Z,0.00
2023-08-18T02:48:50.337Z,0.00
2023-08-18T02:49:21.046Z,0.00
2023-08-18T02:49:51.725Z,0.00
2023-08-18T02:50:22.368Z,0.00
2023-08-18T02:50:53.045Z,0.00
2023-08-18T02:51:23.790Z,0.00
2023-08-18T02:51:54.456Z,0.00
2023-08-18T02:52:25.142Z,0.00
2023-08-18T02:52:55.826Z,0.00
2023-08-18T02:53:26.530Z,0.00
2023-08-18T02:53:57.206Z,0.00
2023-08-18T02:54:27.878Z,0.00
2023-08-18T02:54:58.532Z,0.00
2023-08-18T02:55:29.204Z,0.00
2023-08-18T02:55:59.917Z,0.00
2023-08-18T02:56:30.687Z,0.00
2023-08-18T02:57:01.363Z,0.00
2023-08-18T02:57:32.494Z,0.00
2023-08-18T02:58:02.583Z,0.00
2023-08-18T02:58:33.303Z,0.00
2023-08-18T02:59:03.946Z,0.00
2023-08-18T02:59:34.643Z,0.00
2023-08-18T03:00:05.308Z,0.00
2023-08-18T03:00:36.046Z,0.00
2023-08-18T03:01:06.725Z,0.00
2023-08-18T03:01:37.430Z,0.00
2023-08-18T03:02:08.048Z,0.00
2023-08-18T03:02:38.824Z,0.00
2023-08-18T03:03:09.571Z,0.00
2023-08-18T03:03:40.246Z,0.00
2023-08-18T03:04:10.918Z,0.00
2023-08-18T03:04:41.605Z,0.00
2023-08-18T03:05:12.303Z,0.00
2023-08-18T03:05:42.964Z,0.00
2023-08-18T03:06:13.627Z,0.00
2023-08-18T03:06:44.311Z,0.00
2023-08-18T03:07:15.008Z,0.00
2023-08-18T03:07:45.674Z,0.00
2023-08-18T03:08:16.402Z,0.00
2023-08-18T03:08:47.007Z,0.00
2023-08-18T03:09:17.734Z,0.00
2023-08-18T03:09:48.344Z,0.00
2023-08-18T03:10:19.016Z,0.00
2023-08-18T03:10:49.718Z,0.00
2023-08-18T03:11:20.448Z,0.00
2023-08-18T03:11:51.147Z,0.00
2023-08-18T03:12:21.826Z,0.00
2023-08-18T03:12:52.484Z,0.00
2023-08-18T03:13:23.241Z,0.00
2023-08-18T03:13:53.966Z,0.00
2023-08-18T03:14:24.605Z,0.00
2023-08-18T03:14:55.328Z,0.00
2023-08-18T03:15:25.961Z,0.00
2023-08-18T03:15:56.746Z,0.00
2023-08-18T03:16:27.491Z,0.00
2023-08-18T03:16:58.597Z,0.00
2023-08-18T03:17:28.919Z,0.00
2023-08-18T03:17:59.077Z,0.00
2023-08-18T03:19:58.991Z,0.00
2023-08-18T03:20:29.062Z,0.00
2023-08-18T03:20:59.849Z,0.00
2023-08-18T03:21:30.596Z,0.00
2023-08-18T03:22:01.580Z,0.00
2023-08-18T03:22:31.627Z,0.00
2023-08-18T03:23:02.275Z,0.00
2023-08-18T03:23:32.896Z,0.00
2023-08-18T03:24:03.643Z,0.00
2023-08-18T03:24:34.230Z,0.00
2023-08-18T03:25:04.916Z,0.00
2023-08-18T03:25:35.743Z,0.00
2023-08-18T03:26:06.343Z,0.00
2023-08-18T03:26:37.040Z,0.00
2023-08-18T03:27:07.680Z,0.00
2023-08-18T03:27:38.288Z,0.00
2023-08-18T03:28:08.895Z,0.00
2023-08-18T03:28:39.518Z,0.00
2023-08-18T03:29:10.194Z,0.00
2023-08-18T03:29:40.782Z,0.00
2023-08-18T03:30:11.602Z,0.00
2023-08-18T03:30:42.284Z,0.00
2023-08-18T03:32:38.595Z,0.00
2023-08-18T03:33:09.483Z,0.00
2023-08-18T03:33:40.326Z,0.00
2023-08-18T03:34:11.058Z,0.00
2023-08-18T03:34:41.808Z,0.00
2023-08-18T03:35:12.819Z,0.00
2023-08-18T03:35:42.741Z,0.00
2023-08-18T03:36:13.356Z,0.00
2023-08-18T03:36:44.014Z,0.00
2023-08-18T03:37:14.676Z,0.00
2023-08-18T03:37:45.253Z,0.00
2023-08-18T03:38:15.892Z,0.00
2023-08-18T03:38:46.524Z,0.00
2023-08-18T03:39:17.171Z,0.00
2023-08-18T03:39:47.766Z,0.00
2023-08-18T03:40:18.426Z,0.00
2023-08-18T03:40:48.714Z,0.00
2023-08-18T03:41:19.356Z,0.00
2023-08-18T03:41:50.057Z,0.00
2023-08-18T03:42:20.708Z,0.00
2023-08-18T03:42:52.464Z,0.00
2023-08-18T03:43:22.204Z,0.00
2023-08-18T03:43:52.661Z,0.00
2023-08-18T03:44:23.356Z,0.00
2023-08-18T03:44:53.951Z,0.00
2023-08-18T03:45:24.630Z,0.00
2023-08-18T03:45:55.232Z,0.00
2023-08-18T03:46:25.834Z,0.00
2023-08-18T03:46:56.333Z,1.00
2023-08-18T03:47:26.961Z,1.00
2023-08-18T03:47:57.617Z,1.00
2023-08-18T03:48:43.156Z,1.00
2023-08-18T03:48:58.629Z,1.00
2023-08-18T03:49:29.533Z,1.00
2023-08-18T03:49:59.428Z,1.00
2023-08-18T03:50:46.079Z,2.00
2023-08-18T03:51:00.703Z,0.00
2023-08-18T03:51:30.958Z,0.00
2023-08-18T03:52:02.171Z,0.00
2023-08-18T03:52:32.176Z,0.00
2023-08-18T03:53:02.850Z,2.00
2023-08-18T03:53:33.256Z,2.00
2023-08-18T03:54:03.876Z,2.00
2023-08-18T03:54:33.935Z,1.00
2023-08-18T03:55:04.401Z,1.00
2023-08-18T03:55:34.842Z,3.00
2023-08-18T03:56:05.354Z,3.00
2023-08-18T03:56:35.890Z,2.00
2023-08-18T03:57:06.401Z,2.00
2023-08-18T03:57:36.812Z,1.00
2023-08-18T03:58:07.264Z,5.00
2023-08-18T03:58:37.748Z,2.00
2023-08-18T03:59:08.199Z,4.00
2023-08-18T03:59:38.671Z,3.00
2023-08-18T04:00:09.100Z,5.00
2023-08-18T04:00:39.612Z,8.00
2023-08-18T04:01:10.458Z,2.00
2023-08-18T04:01:40.538Z,3.00
2023-08-18T04:02:10.957Z,7.00
2023-08-18T04:02:41.444Z,8.00
2023-08-18T04:03:11.956Z,6.00
2023-08-18T04:03:42.455Z,7.00
2023-08-18T04:04:13.050Z,8.00
2023-08-18T04:04:43.512Z,9.00
2023-08-18T04:05:13.968Z,6.00
2023-08-18T04:05:45.367Z,9.00
2023-08-18T04:06:15.203Z,11.00
2023-08-18T04:06:45.678Z,12.00
2023-08-18T04:07:16.146Z,13.00
2023-08-18T04:07:46.640Z,13.00
2023-08-18T04:08:17.134Z,11.00
2023-08-18T04:08:47.653Z,14.00
2023-08-18T04:09:18.105Z,17.00
2023-08-18T04:09:48.635Z,20.00
2023-08-18T04:10:19.065Z,21.00
2023-08-18T04:10:49.525Z,24.00
2023-08-18T04:11:19.978Z,23.00
2023-08-18T04:11:50.836Z,25.00
2023-08-18T04:12:21.039Z,27.00
2023-08-18T04:12:51.517Z,29.00
2023-08-18T04:13:21.970Z,29.00
2023-08-18T04:13:52.449Z,26.00
2023-08-18T04:14:22.913Z,34.00
2023-08-18T04:14:53.358Z,36.00
2023-08-18T04:15:23.804Z,38.00
2023-08-18T04:15:54.367Z,43.00
2023-08-18T04:16:24.732Z,45.00
2023-08-18T04:16:55.212Z,45.00
2023-08-18T04:17:26.881Z,47.00
2023-08-18T04:17:56.163Z,52.00
2023-08-18T04:18:26.612Z,55.00
2023-08-18T04:18:57.081Z,54.00
2023-08-18T04:19:27.576Z,56.00
2023-08-18T04:19:57.955Z,66.00
2023-08-18T04:20:28.423Z,63.00
2023-08-18T04:20:58.919Z,63.00
2023-08-18T04:21:29.378Z,69.00
2023-08-18T04:21:59.859Z,79.00
2023-08-18T04:24:03.065Z,88.00
2023-08-18T04:24:34.796Z,96.00
2023-08-18T04:25:04.153Z,101.00
2023-08-18T04:25:34.843Z,103.00
2023-08-18T04:26:06.373Z,109.00
2023-08-18T04:28:01.488Z,123.00
2023-08-18T04:28:31.540Z,127.00
2023-08-18T04:29:02.123Z,130.00
2023-08-18T04:29:33.282Z,133.00
2023-08-18T04:30:03.029Z,140.00
2023-08-18T04:30:33.489Z,143.00
2023-08-18T04:31:03.946Z,150.00
2023-08-18T04:31:34.491Z,152.00
2023-08-18T04:32:04.899Z,156.00
2023-08-18T04:32:35.412Z,156.00
2023-08-18T04:33:05.923Z,163.00
2023-08-18T04:33:36.589Z,168.00
2023-08-18T04:34:07.106Z,172.00
2023-08-18T04:34:37.496Z,180.00
2023-08-18T04:35:08.004Z,183.00
2023-08-18T04:35:38.503Z,190.00
2023-08-18T04:36:08.928Z,191.00
2023-08-18T04:36:39.431Z,199.00
2023-08-18T04:37:09.825Z,204.00
2023-08-18T04:37:40.306Z,211.00
2023-08-18T04:38:10.728Z,215.00
2023-08-18T04:38:41.175Z,221.00
2023-08-18T04:39:11.599Z,220.00
2023-08-18T04:39:42.029Z,234.00
2023-08-18T04:42:11.582Z,266.00
2023-08-18T04:42:43.205Z,276.00
2023-08-18T04:43:12.419Z,282.00
2023-08-18T04:43:43.066Z,292.00
2023-08-18T04:44:13.842Z,296.00
2023-08-18T04:44:56.028Z,309.00
2023-08-18T04:46:40.847Z,346.00
2023-08-18T04:47:11.509Z,352.00
2023-08-18T04:47:43.492Z,365.00
2023-08-18T04:48:12.830Z,377.00
2023-08-18T04:48:43.356Z,381.00
2023-08-18T04:49:13.772Z,390.00
2023-08-18T04:49:44.286Z,406.00
2023-08-18T04:50:14.737Z,421.00
2023-08-18T04:50:45.176Z,422.00
2023-08-18T04:51:15.625Z,437.00
2023-08-18T04:51:46.172Z,452.00
2023-08-18T04:52:16.619Z,462.00
2023-08-18T04:52:47.094Z,472.00
2023-08-18T04:55:29.404Z,545.00
2023-08-18T04:56:01.030Z,559.00
2023-08-18T04:56:30.373Z,576.00
2023-08-18T04:57:01.025Z,584.00
2023-08-18T04:57:31.841Z,600.00
2023-08-18T04:58:02.345Z,616.00
2023-08-18T04:58:32.886Z,631.00
2023-08-18T04:59:03.414Z,645.00
2023-08-18T04:59:33.873Z,665.00
2023-08-18T05:00:04.436Z,678.00
2023-08-18T05:00:34.992Z,689.00
2023-08-18T05:01:05.454Z,713.00
2023-08-18T05:01:35.916Z,727.00
2023-08-18T05:02:06.497Z,735.00
2023-08-18T05:02:37.112Z,756.00
2023-08-18T05:03:07.692Z,771.00
2023-08-18T05:05:15.279Z,830.00
2023-08-18T05:07:12.038Z,885.00
2023-08-18T05:07:42.698Z,900.00
2023-08-18T05:08:13.298Z,913.00
2023-08-18T05:08:44.142Z,931.00
2023-08-18T05:09:13.925Z,949.00
2023-08-18T05:09:45.371Z,970.00
2023-08-18T05:10:15.176Z,982.00
2023-08-18T05:10:45.685Z,995.00
2023-08-18T05:11:16.191Z,1012.00
2023-08-18T05:11:47.645Z,1032.00
2023-08-18T05:12:17.398Z,1045.00
2023-08-18T05:13:03.359Z,1062.00
2023-08-18T05:13:18.159Z,1077.00
2023-08-18T05:13:48.777Z,1094.00
2023-08-18T05:14:19.463Z,1114.00
2023-08-18T05:14:50.209Z,1131.00
2023-08-18T05:15:20.763Z,1143.00
2023-08-18T05:15:51.259Z,1159.00
2023-08-18T05:16:21.695Z,1172.00
2023-08-18T05:16:52.299Z,1193.00
2023-08-18T05:17:22.777Z,1202.00
2023-08-18T05:17:53.277Z,1225.00
2023-08-18T05:18:23.729Z,1236.00
2023-08-18T05:18:56.393Z,1257.00
2023-08-18T05:19:24.529Z,1264.00
2023-08-18T05:19:54.985Z,1290.00
2023-08-18T05:20:25.456Z,1299.00
2023-08-18T05:20:56.012Z,1314.00
2023-08-18T05:21:26.426Z,1329.00
2023-08-18T05:21:56.893Z,1350.00
2023-08-18T05:22:27.769Z,1358.00
2023-08-18T05:22:57.724Z,1369.00
2023-08-18T05:23:28.246Z,1380.00
2023-08-18T05:23:58.777Z,1395.00
2023-08-18T05:24:29.293Z,1409.00
2023-08-18T05:24:59.724Z,1429.00
2023-08-18T05:25:30.185Z,1437.00
2023-08-18T05:26:00.810Z,1454.00
2023-08-18T05:26:31.266Z,1468.00
2023-08-18T05:27:01.791Z,1479.00
2023-08-18T05:27:32.239Z,1497.00
2023-08-18T05:28:02.679Z,1512.00
2023-08-18T05:28:33.147Z,1530.00
2023-08-18T05:29:03.648Z,1544.00
2023-08-18T05:29:34.081Z,1563.00
2023-08-18T05:30:04.589Z,1573.00
2023-08-18T05:30:35.131Z,1588.00
2023-08-18T05:31:05.678Z,1598.00
2023-08-18T05:31:36.220Z,1617.00
2023-08-18T05:32:06.645Z,1626.00
2023-08-18T05:32:37.184Z,1642.00
2023-08-18T05:33:07.636Z,1656.00
2023-08-18T05:33:38.080Z,1660.00
2023-08-18T05:35:41.577Z,1722.00
2023-08-18T05:36:12.347Z,1734.00
2023-08-18T05:36:43.020Z,1745.00
2023-08-18T05:37:13.565Z,1757.00
2023-08-18T05:37:44.138Z,1765.00
2023-08-18T05:38:14.839Z,1780.00
2023-08-18T05:38:45.379Z,1794.00
2023-08-18T05:39:15.852Z,1811.00
2023-08-18T05:39:46.411Z,1823.00
2023-08-18T05:40:16.828Z,1842.00
2023-08-18T05:40:47.421Z,1853.00
2023-08-18T05:41:17.880Z,1864.00
2023-08-18T05:41:48.340Z,1878.00
2023-08-18T05:42:18.833Z,1900.00
2023-08-18T05:42:49.302Z,1908.00
2023-08-18T05:43:19.808Z,1927.00
2023-08-18T05:43:50.398Z,1947.00
2023-08-18T05:44:20.872Z,1960.00
2023-08-18T05:44:51.322Z,1976.00
2023-08-18T05:45:21.884Z,1992.00
2023-08-18T05:45:52.363Z,2016.00
2023-08-18T05:46:22.819Z,2034.00
2023-08-18T05:46:53.283Z,2061.00
2023-08-18T05:47:23.763Z,2084.00
2023-08-18T05:47:54.294Z,2112.00
2023-08-18T05:48:24.737Z,2134.00
2023-08-18T05:48:55.254Z,2160.00
2023-08-18T05:49:25.689Z,2179.00
2023-08-18T05:49:56.133Z,2211.00
2023-08-18T05:50:26.644Z,2242.00
2023-08-18T05:50:57.059Z,2269.00
2023-08-18T05:51:27.560Z,2288.00
2023-08-18T05:51:57.969Z,2311.00
2023-08-18T05:52:28.755Z,2329.00
2023-08-18T05:52:58.734Z,2349.00
2023-08-18T05:53:29.163Z,2362.00
2023-08-18T05:53:59.710Z,2375.00
2023-08-18T05:54:30.145Z,2386.00
2023-08-18T05:55:00.579Z,2405.00
2023-08-18T05:55:31.243Z,2415.00
2023-08-18T05:56:01.758Z,2431.00
2023-08-18T05:56:32.436Z,2442.00
2023-08-18T05:57:02.890Z,2464.00
2023-08-18T05:57:33.362Z,2471.00
2023-08-18T05:58:03.819Z,2494.00
2023-08-18T05:58:34.329Z,2510.00
2023-08-18T05:59:04.866Z,2506.00
2023-08-18T05:59:45.526Z,2795.00
2023-08-18T06:00:05.944Z,3182.00
2023-08-18T06:00:36.493Z,3258.00
2023-08-18T06:01:15.544Z,3269.00
2023-08-18T06:01:37.995Z,3576.00
2023-08-18T06:03:35.952Z,4162.00
2023-08-18T06:04:06.906Z,4088.00
2023-08-18T06:04:36.795Z,4297.00
2023-08-18T06:05:07.329Z,4157.00
2023-08-18T06:05:37.990Z,3170.00
2023-08-18T06:06:08.751Z,2727.00
2023-08-18T06:06:39.320Z,2731.00
2023-08-18T06:07:09.793Z,2728.00
2023-08-18T06:07:40.300Z,2729.00
2023-08-18T06:08:10.764Z,2737.00
2023-08-18T06:08:41.301Z,2737.00
2023-08-18T06:09:11.758Z,2754.00
2023-08-18T06:09:42.221Z,2768.00
2023-08-18T06:10:12.726Z,2782.00
2023-08-18T06:10:43.198Z,2789.00
2023-08-18T06:11:13.624Z,2807.00
2023-08-18T06:11:44.107Z,2835.00
2023-08-18T06:12:14.579Z,2848.00
2023-08-18T06:12:45.052Z,2877.00
2023-08-18T06:13:15.469Z,2912.00
2023-08-18T06:13:45.943Z,2943.00
2023-08-18T06:14:16.467Z,2978.00
2023-08-18T06:14:46.931Z,3001.00
2023-08-18T06:15:17.428Z,2966.00
2023-08-18T06:15:47.937Z,3514.00
2023-08-18T06:16:18.408Z,5472.00
2023-08-18T06:16:48.853Z,10424.00
2023-08-18T06:17:19.343Z,15025.00
2023-08-18T06:17:49.862Z,13920.00
2023-08-18T06:18:20.315Z,5830.00
2023-08-18T06:18:50.846Z,5612.00
2023-08-18T06:19:21.356Z,5660.00
2023-08-18T06:19:51.769Z,6510.00
2023-08-18T06:20:22.380Z,14507.00
2023-08-18T06:20:52.809Z,18742.00
2023-08-18T06:21:23.353Z,15881.00
2023-08-18T06:21:53.834Z,8566.00
2023-08-18T06:22:24.338Z,5416.00
2023-08-18T06:22:54.796Z,5113.00
2023-08-18T06:23:25.284Z,5471.00
2023-08-18T06:23:55.804Z,6983.00
2023-08-18T06:24:26.240Z,7153.00
2023-08-18T06:24:56.691Z,10959.00
2023-08-18T06:25:27.156Z,5700.00
2023-08-18T06:25:57.584Z,5403.00
2023-08-18T06:26:28.082Z,4308.00
2023-08-18T06:26:58.537Z,4741.00
2023-08-18T06:27:29.036Z,5626.00
2023-08-18T06:27:59.454Z,4758.00
2023-08-18T06:28:29.996Z,10707.00
2023-08-18T06:29:00.602Z,10127.00
2023-08-18T06:29:31.045Z,5591.00
2023-08-18T06:30:01.526Z,4605.00
2023-08-18T06:30:31.979Z,5888.00
2023-08-18T06:31:02.465Z,11830.00
2023-08-18T06:31:32.990Z,16561.00
2023-08-18T06:32:03.437Z,15665.00
2023-08-18T06:32:33.956Z,10915.00
2023-08-18T06:33:04.510Z,5781.00
2023-08-18T06:33:43.146Z,3957.00
2023-08-18T06:34:05.504Z,3759.00
2023-08-18T06:34:35.988Z,3703.00
2023-08-18T06:35:06.449Z,3657.00
2023-08-18T06:35:36.990Z,3623.00
2023-08-18T06:36:07.460Z,3588.00
2023-08-18T06:36:37.928Z,3569.00
2023-08-18T06:37:08.443Z,3556.00
2023-08-18T06:37:39.651Z,3560.00
2023-08-18T06:38:09.451Z,3554.00
2023-08-18T06:38:39.972Z,3566.00
2023-08-18T06:39:10.490Z,3576.00
2023-08-18T06:39:41.015Z,3578.00
2023-08-18T06:40:11.573Z,3587.00
2023-08-18T06:40:42.075Z,3585.00
2023-08-18T06:41:12.600Z,3584.00
2023-08-18T06:41:43.065Z,3572.00
2023-08-18T06:42:13.552Z,3563.00
2023-08-18T06:42:44.020Z,3566.00
2023-08-18T06:43:14.590Z,3571.00
2023-08-18T06:43:44.991Z,3573.00
2023-08-18T06:44:15.499Z,3571.00
2023-08-18T06:44:45.970Z,3584.00
2023-08-18T06:45:16.450Z,3594.00
2023-08-18T06:45:46.926Z,3609.00
2023-08-18T06:46:17.544Z,3623.00
2023-08-18T06:46:48.064Z,3647.00
2023-08-18T06:47:18.532Z,3662.00
2023-08-18T06:47:49.051Z,3683.00
2023-08-18T06:48:19.481Z,3706.00
2023-08-18T06:48:49.941Z,3719.00
2023-08-18T06:49:20.425Z,3739.00
2023-08-18T06:49:50.915Z,3739.00
2023-08-18T06:50:21.396Z,3735.00
2023-08-18T06:50:51.839Z,3727.00
2023-08-18T06:51:22.309Z,3728.00
2023-08-18T06:51:52.809Z,3712.00
2023-08-18T06:52:23.276Z,3691.00
2023-08-18T06:52:53.782Z,3673.00
2023-08-18T06:53:24.238Z,3665.00
2023-08-18T06:53:54.704Z,3654.00
2023-08-18T06:54:25.156Z,3646.00
2023-08-18T06:54:56.027Z,3637.00
2023-08-18T06:55:27.999Z,3635.00
2023-08-18T06:56:02.365Z,3634.00
2023-08-18T06:56:29.030Z,3649.00